FYOA

Ondangwa Airport

Ondangwa, Namibia
METAR FYOA 171200Z 10007KT 9999 FEW050 41/M02 Q1013
Observed Flight Rules
Nov-17 @ 12:00 UTC (10 hours ago) Visual Flight Rules
Wind Visibility Clouds
100° at 7 knots 10,000+ meters
  • Few at 5,000' AGL
Temperatures Readings
Current 41°C / 106°F
Dewpoint -2°C / 28°F
Humidity 7%
Altimeter 29.91" Hg
Pressure 1013 hPa
Elevation 1095
METAR FYOA 171200Z 10007KT 9999 FEW050 41/M02 Q1013
Observed Flight Rules
Nov-17 @ 12:00 UTC
(10 hours ago)
VFR
Wind Visibility
100° at 7 knots 10,000+ meters
Clouds
  • Few at 5,000' AGL
Temperature Dewpoint
41°C / 106°F -2°C / 28°F
Humidity Altimeter Pressure
7% 29.91" Hg 1013 hPa